createdAt,value
2023-07-24T00:00:06.586Z,19.54
2023-07-24T00:00:45.536Z,19.51
2023-07-24T00:01:45.439Z,19.53
2023-07-24T00:02:45.461Z,19.64
2023-07-24T00:03:45.340Z,19.54
2023-07-24T00:04:45.240Z,19.64
2023-07-24T00:06:06.102Z,19.68
2023-07-24T00:06:45.058Z,19.64
2023-07-24T00:07:44.980Z,19.61
2023-07-24T00:08:44.898Z,19.64
2023-07-24T00:09:44.826Z,19.54
2023-07-24T00:10:44.749Z,19.71
2023-07-24T00:12:05.650Z,19.69
2023-07-24T00:12:44.607Z,19.64
2023-07-24T00:13:44.512Z,19.78
2023-07-24T00:14:44.442Z,19.78
2023-07-24T00:15:44.369Z,19.75
2023-07-24T00:16:44.314Z,19.79
2023-07-24T00:18:05.249Z,19.78
2023-07-24T00:18:44.152Z,19.82
2023-07-24T00:19:44.058Z,19.75
2023-07-24T00:20:43.990Z,19.78
2023-07-24T00:21:43.907Z,19.73
2023-07-24T00:22:43.849Z,19.72
2023-07-24T00:24:04.753Z,19.61
2023-07-24T00:24:43.751Z,19.48
2023-07-24T00:25:43.604Z,19.51
2023-07-24T00:26:43.521Z,19.40
2023-07-24T00:27:43.441Z,19.36
2023-07-24T00:28:43.385Z,19.32
2023-07-24T00:30:04.283Z,19.36
2023-07-24T00:30:43.250Z,19.32
2023-07-24T00:31:43.148Z,19.28
2023-07-24T00:32:43.153Z,19.24
2023-07-24T00:33:43.013Z,19.31
2023-07-24T00:34:42.941Z,19.24
2023-07-24T00:36:03.836Z,19.18
2023-07-24T00:36:42.810Z,19.20
2023-07-24T00:37:42.707Z,19.13
2023-07-24T00:38:42.645Z,19.17
2023-07-24T00:39:42.539Z,19.08
2023-07-24T00:40:42.493Z,18.98
2023-07-24T00:42:03.401Z,19.13
2023-07-24T00:42:42.333Z,19.06
2023-07-24T00:43:42.241Z,19.05
2023-07-24T00:44:42.172Z,19.06
2023-07-24T00:45:42.097Z,19.02
2023-07-24T00:46:42.068Z,19.02
2023-07-24T00:48:02.992Z,18.98
2023-07-24T00:48:41.863Z,18.92
2023-07-24T00:49:41.787Z,18.94
2023-07-24T00:50:41.722Z,18.86
2023-07-24T00:51:41.626Z,18.89
2023-07-24T00:52:41.564Z,18.86
2023-07-24T00:54:02.502Z,18.80
2023-07-24T00:54:41.415Z,18.79
2023-07-24T00:55:41.315Z,18.83
2023-07-24T00:56:41.265Z,18.80
2023-07-24T00:57:41.693Z,18.62
2023-07-24T00:58:41.104Z,18.73
2023-07-24T01:00:02.006Z,18.68
2023-07-24T01:00:40.979Z,18.65
2023-07-24T01:01:40.880Z,18.57
2023-07-24T01:02:40.855Z,18.59
2023-07-24T01:03:40.719Z,18.68
2023-07-24T01:04:40.732Z,18.59
2023-07-24T01:06:01.565Z,18.59
2023-07-24T01:06:40.503Z,18.59
2023-07-24T01:07:40.403Z,18.43
2023-07-24T01:08:40.350Z,18.22
2023-07-24T01:09:40.269Z,18.07
2023-07-24T01:10:40.192Z,18.09
2023-07-24T01:12:01.100Z,17.94
2023-07-24T01:12:40.039Z,17.76
2023-07-24T01:13:39.958Z,17.76
2023-07-24T01:14:39.891Z,17.82
2023-07-24T01:15:39.799Z,17.77
2023-07-24T01:16:39.756Z,17.74
2023-07-24T01:18:00.655Z,17.81
2023-07-24T01:18:39.589Z,17.87
2023-07-24T01:19:39.508Z,17.95
2023-07-24T01:20:39.432Z,17.89
2023-07-24T01:21:39.331Z,17.89
2023-07-24T01:22:39.279Z,18.04
2023-07-24T01:24:00.180Z,18.09
2023-07-24T01:24:39.158Z,18.10
2023-07-24T01:25:39.081Z,18.10
2023-07-24T01:26:38.984Z,18.21
2023-07-24T01:27:38.879Z,18.13
2023-07-24T01:28:38.810Z,18.16
2023-07-24T01:29:59.712Z,18.14
2023-07-24T01:30:38.669Z,18.27
2023-07-24T01:31:38.621Z,18.19
2023-07-24T01:32:38.532Z,18.25
2023-07-24T01:33:38.447Z,18.18
2023-07-24T01:34:38.351Z,18.21
2023-07-24T01:35:59.258Z,18.28
2023-07-24T01:36:38.220Z,18.14
2023-07-24T01:37:38.144Z,18.11
2023-07-24T01:38:38.054Z,18.04
2023-07-24T01:39:37.982Z,18.06
2023-07-24T01:40:37.895Z,18.02
2023-07-24T01:41:58.794Z,17.95
2023-07-24T01:42:37.751Z,18.03
2023-07-24T01:43:37.678Z,17.85
2023-07-24T01:44:37.596Z,17.82
2023-07-24T01:45:37.510Z,17.79
2023-07-24T01:46:37.481Z,17.69
2023-07-24T01:47:58.383Z,17.64
2023-07-24T01:48:37.285Z,17.60
2023-07-24T01:49:37.225Z,17.57
2023-07-24T01:50:37.121Z,17.60
2023-07-24T01:51:37.048Z,17.74
2023-07-24T01:52:36.989Z,17.73
2023-07-24T01:53:57.892Z,17.55
2023-07-24T01:54:36.831Z,17.66
2023-07-24T01:55:36.756Z,17.70
2023-07-24T01:56:36.713Z,17.71
2023-07-24T01:57:36.594Z,17.63
2023-07-24T01:58:36.550Z,17.67
2023-07-24T01:59:57.440Z,17.66
2023-07-24T02:00:36.381Z,17.69
2023-07-24T02:01:36.366Z,17.74
2023-07-24T02:02:36.253Z,17.63
2023-07-24T02:03:36.211Z,17.55
2023-07-24T02:04:36.062Z,17.60
2023-07-24T02:05:56.963Z,17.60
2023-07-24T02:06:35.910Z,17.73
2023-07-24T02:07:35.816Z,17.58
2023-07-24T02:08:35.759Z,17.66
2023-07-24T02:09:35.689Z,17.66
2023-07-24T02:10:35.612Z,17.67
2023-07-24T02:11:56.512Z,17.67
2023-07-24T02:12:35.456Z,17.70
2023-07-24T02:13:35.365Z,17.77
2023-07-24T02:14:35.291Z,17.67
2023-07-24T02:15:35.232Z,17.66
2023-07-24T02:16:35.176Z,17.60
2023-07-24T02:17:56.068Z,17.69
2023-07-24T02:18:34.979Z,17.66
2023-07-24T02:19:34.914Z,17.63
2023-07-24T02:20:34.850Z,17.69
2023-07-24T02:21:34.746Z,17.73
2023-07-24T02:22:34.677Z,17.64
2023-07-24T02:23:55.603Z,17.69
2023-07-24T02:24:34.584Z,17.66
2023-07-24T02:25:34.447Z,17.70
2023-07-24T02:26:34.357Z,17.67
2023-07-24T02:27:34.304Z,17.64
2023-07-24T02:28:34.214Z,17.69
2023-07-24T02:29:55.109Z,17.60
2023-07-24T02:30:34.070Z,17.57
2023-07-24T02:31:34.124Z,17.73
2023-07-24T02:32:33.966Z,17.63
2023-07-24T02:33:33.844Z,17.63
2023-07-24T02:34:33.760Z,17.71
2023-07-24T02:35:54.649Z,17.64
2023-07-24T02:36:33.612Z,17.73
2023-07-24T02:37:33.535Z,17.70
2023-07-24T02:38:33.458Z,17.76
2023-07-24T02:39:33.377Z,17.77
2023-07-24T02:40:33.292Z,17.77
2023-07-24T02:41:54.197Z,17.79
2023-07-24T02:42:33.146Z,17.79
2023-07-24T02:43:33.055Z,17.66
2023-07-24T02:44:32.980Z,17.70
2023-07-24T02:45:32.945Z,17.73
2023-07-24T02:46:33.014Z,17.70
2023-07-24T02:47:53.775Z,17.77
2023-07-24T02:48:32.709Z,17.79
2023-07-24T02:49:32.599Z,17.88
2023-07-24T02:50:32.513Z,17.88
2023-07-24T02:51:32.450Z,17.89
2023-07-24T02:52:32.361Z,17.84
2023-07-24T02:53:53.419Z,17.89
2023-07-24T02:54:32.217Z,17.92
2023-07-24T02:55:32.136Z,17.95
2023-07-24T02:56:32.355Z,17.96
2023-07-24T02:57:31.994Z,17.95
2023-07-24T02:58:31.925Z,18.06
2023-07-24T02:59:52.831Z,17.95
2023-07-24T03:00:31.785Z,18.03
2023-07-24T03:01:31.717Z,18.07
2023-07-24T03:02:31.733Z,18.07
2023-07-24T03:03:31.602Z,18.10
2023-07-24T03:04:31.449Z,18.04
2023-07-24T03:05:52.341Z,18.13
2023-07-24T03:06:31.431Z,18.09
2023-07-24T03:07:31.222Z,18.07
2023-07-24T03:08:31.149Z,18.04
2023-07-24T03:09:31.072Z,18.04
2023-07-24T03:10:30.986Z,18.09
2023-07-24T03:11:51.919Z,18.13
2023-07-24T03:12:30.847Z,18.06
2023-07-24T03:13:30.776Z,18.13
2023-07-24T03:14:30.749Z,18.10
2023-07-24T03:15:30.620Z,17.98
2023-07-24T03:16:30.886Z,17.92
2023-07-24T03:17:51.463Z,17.88
2023-07-24T03:18:30.416Z,17.87
2023-07-24T03:19:30.303Z,17.79
2023-07-24T03:20:30.230Z,17.76
2023-07-24T03:21:30.162Z,17.79
2023-07-24T03:22:30.070Z,17.74
2023-07-24T03:23:50.959Z,17.70
2023-07-24T03:24:30.053Z,17.73
2023-07-24T03:25:29.863Z,17.69
2023-07-24T03:26:29.905Z,17.66
2023-07-24T03:27:29.695Z,17.60
2023-07-24T03:28:29.615Z,17.67
2023-07-24T03:29:50.494Z,17.60
2023-07-24T03:30:29.516Z,17.70
2023-07-24T03:31:29.396Z,17.66
2023-07-24T03:32:29.323Z,17.64
2023-07-24T03:33:29.222Z,17.73
2023-07-24T03:34:29.133Z,17.66
2023-07-24T03:35:50.062Z,17.66
2023-07-24T03:36:29.161Z,17.81
2023-07-24T03:37:28.926Z,17.79
2023-07-24T03:38:28.852Z,17.85
2023-07-24T03:39:28.755Z,17.84
2023-07-24T03:40:28.705Z,17.77
2023-07-24T03:41:49.603Z,17.67
2023-07-24T03:42:28.548Z,17.71
2023-07-24T03:43:28.444Z,17.74
2023-07-24T03:44:28.376Z,17.66
2023-07-24T03:45:28.295Z,17.69
2023-07-24T03:46:28.557Z,17.63
2023-07-24T03:47:49.164Z,17.63
2023-07-24T03:48:28.066Z,17.71
2023-07-24T03:49:27.987Z,17.67
2023-07-24T03:50:27.922Z,17.70
2023-07-24T03:51:27.851Z,17.60
2023-07-24T03:52:27.761Z,17.64
2023-07-24T03:53:48.659Z,17.63
2023-07-24T03:54:27.615Z,17.67
2023-07-24T03:55:27.597Z,17.70
2023-07-24T03:56:27.573Z,17.55
2023-07-24T03:57:27.383Z,17.60
2023-07-24T03:58:27.291Z,17.71
2023-07-24T03:59:48.220Z,17.64
2023-07-24T04:00:27.158Z,17.63
2023-07-24T04:01:27.152Z,17.63
2023-07-24T04:02:27.018Z,17.73
2023-07-24T04:03:26.968Z,17.71
2023-07-24T04:04:26.835Z,17.67
2023-07-24T04:05:47.742Z,17.66
2023-07-24T04:06:26.696Z,17.69
2023-07-24T04:07:26.615Z,17.50
2023-07-24T04:08:26.519Z,17.57
2023-07-24T04:09:26.503Z,17.54
2023-07-24T04:10:26.377Z,17.57
2023-07-24T04:11:47.298Z,17.57
2023-07-24T04:12:26.233Z,17.69
2023-07-24T04:13:26.141Z,17.63
2023-07-24T04:14:26.077Z,17.54
2023-07-24T04:15:26.011Z,17.55
2023-07-24T04:16:29.110Z,17.47
2023-07-24T04:17:46.878Z,17.50
2023-07-24T04:18:25.766Z,17.26
2023-07-24T04:19:25.696Z,17.38
2023-07-24T04:20:25.645Z,17.44
2023-07-24T04:21:25.548Z,17.46
2023-07-24T04:22:25.460Z,17.39
2023-07-24T04:23:46.363Z,17.53
2023-07-24T04:24:25.323Z,17.47
2023-07-24T04:25:25.243Z,17.40
2023-07-24T04:26:25.163Z,17.44
2023-07-24T04:27:25.091Z,17.26
2023-07-24T04:28:25.008Z,17.40
2023-07-24T04:29:45.905Z,17.38
2023-07-24T04:30:24.842Z,17.50
2023-07-24T04:31:24.788Z,17.57
2023-07-24T04:32:24.711Z,17.51
2023-07-24T04:33:24.617Z,17.44
2023-07-24T04:34:24.521Z,17.50
2023-07-24T04:35:45.427Z,17.32
2023-07-24T04:36:24.388Z,17.28
2023-07-24T04:37:24.292Z,17.35
2023-07-24T04:38:24.224Z,17.32
2023-07-24T04:39:24.148Z,17.29
2023-07-24T04:40:24.073Z,17.43
2023-07-24T04:41:44.983Z,17.39
2023-07-24T04:42:23.920Z,17.32
2023-07-24T04:43:23.832Z,17.35
2023-07-24T04:44:23.753Z,17.35
2023-07-24T04:45:24.233Z,17.28
2023-07-24T04:46:23.651Z,17.44
2023-07-24T04:47:44.527Z,17.47
2023-07-24T04:48:23.453Z,17.44
2023-07-24T04:49:23.377Z,17.55
2023-07-24T04:50:23.292Z,17.54
2023-07-24T04:51:23.227Z,17.50
2023-07-24T04:52:23.150Z,17.50
2023-07-24T04:53:44.060Z,17.53
2023-07-24T04:54:22.978Z,17.40
2023-07-24T04:55:22.917Z,17.53
2023-07-24T04:56:22.835Z,17.44
2023-07-24T04:57:22.771Z,17.53
2023-07-24T04:58:22.673Z,17.57
2023-07-24T04:59:44.738Z,17.46
2023-07-24T05:00:22.526Z,17.53
2023-07-24T05:01:22.464Z,17.46
2023-07-24T05:02:22.371Z,17.53
2023-07-24T05:03:22.330Z,17.55
2023-07-24T05:04:22.265Z,17.55
2023-07-24T05:05:46.511Z,17.66
2023-07-24T05:06:22.074Z,17.54
2023-07-24T05:07:22.001Z,17.53
2023-07-24T05:08:21.917Z,17.55
2023-07-24T05:09:21.849Z,17.54
2023-07-24T05:10:21.819Z,17.58
2023-07-24T05:11:42.673Z,17.51
2023-07-24T05:12:21.596Z,17.67
2023-07-24T05:13:21.527Z,17.69
2023-07-24T05:14:21.464Z,17.64
2023-07-24T05:15:21.365Z,17.69
2023-07-24T05:16:21.315Z,17.69
2023-07-24T05:17:42.235Z,17.70
2023-07-24T05:18:21.139Z,17.73
2023-07-24T05:19:21.059Z,17.77
2023-07-24T05:20:20.997Z,17.81
2023-07-24T05:21:20.918Z,17.92
2023-07-24T05:22:20.841Z,17.96
2023-07-24T05:23:41.747Z,17.92
2023-07-24T05:24:20.704Z,17.89
2023-07-24T05:25:20.630Z,18.10
2023-07-24T05:26:20.570Z,18.00
2023-07-24T05:27:20.456Z,18.02
2023-07-24T05:28:20.394Z,18.11
2023-07-24T05:29:41.274Z,18.19
2023-07-24T05:30:20.223Z,18.18
2023-07-24T05:31:20.182Z,18.18
2023-07-24T05:32:20.065Z,18.18
2023-07-24T05:33:19.988Z,18.13
2023-07-24T05:34:19.911Z,18.21
2023-07-24T05:35:40.831Z,18.27
2023-07-24T05:36:19.768Z,18.21
2023-07-24T05:37:19.680Z,18.29
2023-07-24T05:38:19.596Z,18.35
2023-07-24T05:39:19.533Z,18.40
2023-07-24T05:40:19.452Z,18.42
2023-07-24T05:41:41.179Z,18.42
2023-07-24T05:42:19.281Z,18.39
2023-07-24T05:43:19.218Z,18.47
2023-07-24T05:44:19.146Z,18.47
2023-07-24T05:45:19.136Z,18.42
2023-07-24T05:46:19.011Z,18.52
2023-07-24T05:47:39.952Z,18.58
2023-07-24T05:48:18.837Z,18.57
2023-07-24T05:49:18.756Z,18.68
2023-07-24T05:50:18.696Z,18.69
2023-07-24T05:51:18.630Z,18.69
2023-07-24T05:52:18.524Z,18.80
2023-07-24T05:53:39.443Z,18.77
2023-07-24T05:54:18.392Z,18.82
2023-07-24T05:55:18.292Z,18.90
2023-07-24T05:56:18.229Z,18.92
2023-07-24T05:57:18.132Z,19.05
2023-07-24T05:58:18.074Z,19.01
2023-07-24T05:59:38.970Z,19.01
2023-07-24T06:00:17.915Z,19.08
2023-07-24T06:01:17.840Z,19.13
2023-07-24T06:02:17.762Z,19.18
2023-07-24T06:03:17.716Z,19.15
2023-07-24T06:04:17.708Z,19.24
2023-07-24T06:05:38.516Z,19.32
2023-07-24T06:06:17.449Z,19.25
2023-07-24T06:07:17.376Z,19.35
2023-07-24T06:08:17.312Z,19.33
2023-07-24T06:09:17.387Z,19.48
2023-07-24T06:10:17.147Z,19.53
2023-07-24T06:11:38.044Z,19.54
2023-07-24T06:12:16.984Z,19.58
2023-07-24T06:13:16.939Z,19.57
2023-07-24T06:14:16.846Z,19.65
2023-07-24T06:15:16.782Z,19.65
2023-07-24T06:16:16.716Z,19.72
2023-07-24T06:17:37.651Z,19.69
2023-07-24T06:18:16.531Z,19.72
2023-07-24T06:19:16.461Z,19.76
2023-07-24T06:20:16.397Z,19.73
2023-07-24T06:21:16.317Z,19.73
2023-07-24T06:22:16.232Z,19.71
2023-07-24T06:23:37.155Z,19.75
2023-07-24T06:24:16.128Z,19.76
2023-07-24T06:25:16.007Z,19.75
2023-07-24T06:26:15.927Z,19.80
2023-07-24T06:27:15.867Z,19.83
2023-07-24T06:28:15.777Z,19.79
2023-07-24T06:29:39.086Z,19.93
2023-07-24T06:30:16.659Z,19.88
2023-07-24T06:31:15.582Z,19.93
2023-07-24T06:32:15.472Z,19.93
2023-07-24T06:33:15.384Z,20.01
2023-07-24T06:34:15.341Z,19.95
2023-07-24T06:35:36.226Z,19.98
2023-07-24T06:36:15.174Z,20.06
2023-07-24T06:37:22.828Z,19.98
2023-07-24T06:38:15.020Z,20.12
2023-07-24T06:39:14.929Z,20.13
2023-07-24T06:40:14.879Z,20.18
2023-07-24T06:41:35.776Z,20.20
2023-07-24T06:42:14.720Z,20.28
2023-07-24T06:43:14.640Z,20.23
2023-07-24T06:44:14.556Z,20.33
2023-07-24T06:45:14.490Z,20.35
2023-07-24T06:46:14.440Z,20.30
2023-07-24T06:47:35.371Z,20.38
2023-07-24T06:48:14.271Z,20.40
2023-07-24T06:49:14.180Z,20.47
2023-07-24T06:50:14.097Z,20.51
2023-07-24T06:51:14.065Z,20.59
2023-07-24T06:52:13.937Z,20.53
2023-07-24T06:53:34.860Z,20.62
2023-07-24T06:54:13.805Z,20.61
2023-07-24T06:55:13.730Z,20.65
2023-07-24T06:56:13.647Z,20.82
2023-07-24T06:57:13.587Z,20.79
2023-07-24T06:58:13.506Z,20.82
2023-07-24T06:59:34.423Z,20.86
2023-07-24T07:00:13.343Z,20.98
2023-07-24T07:01:13.294Z,20.94
2023-07-24T07:02:13.178Z,20.91
2023-07-24T07:03:13.193Z,21.01
2023-07-24T07:04:13.024Z,21.01
2023-07-24T07:05:33.953Z,21.09
2023-07-24T07:06:42.952Z,21.02
2023-07-24T07:07:12.816Z,21.11
2023-07-24T07:08:12.740Z,21.19
2023-07-24T07:09:12.658Z,21.30
2023-07-24T07:10:12.598Z,21.27
2023-07-24T07:11:33.506Z,21.30
2023-07-24T07:12:12.439Z,21.30
2023-07-24T07:13:12.368Z,21.33
2023-07-24T07:14:12.282Z,21.44
2023-07-24T07:15:12.227Z,21.46
2023-07-24T07:16:12.207Z,21.42
2023-07-24T07:17:33.075Z,21.69
2023-07-24T07:18:12.011Z,21.67
2023-07-24T07:19:11.908Z,21.70
2023-07-24T07:20:11.839Z,21.84
2023-07-24T07:21:11.805Z,21.92
2023-07-24T07:22:11.701Z,22.04
2023-07-24T07:23:32.603Z,21.97
2023-07-24T07:24:11.617Z,22.02
2023-07-24T07:25:11.466Z,22.13
2023-07-24T07:26:11.394Z,22.13
2023-07-24T07:27:11.322Z,22.19
2023-07-24T07:28:11.239Z,22.23
2023-07-24T07:29:32.144Z,22.31
2023-07-24T07:30:11.079Z,22.23
2023-07-24T07:31:11.093Z,22.38
2023-07-24T07:32:10.946Z,22.41
2023-07-24T07:33:10.871Z,22.44
2023-07-24T07:34:10.796Z,22.38
2023-07-24T07:35:31.696Z,22.42
2023-07-24T07:36:10.644Z,22.54
2023-07-24T07:37:10.578Z,22.68
2023-07-24T07:38:10.473Z,22.69
2023-07-24T07:39:10.408Z,22.53
2023-07-24T07:40:10.318Z,22.63
2023-07-24T07:41:31.254Z,22.59
2023-07-24T07:42:17.520Z,22.67
2023-07-24T07:43:10.109Z,22.65
2023-07-24T07:44:10.032Z,22.68
2023-07-24T07:45:09.979Z,22.63
2023-07-24T07:46:09.896Z,22.72
2023-07-24T07:47:30.859Z,22.72
2023-07-24T07:48:09.769Z,22.75
2023-07-24T07:49:09.675Z,22.72
2023-07-24T07:50:09.585Z,22.69
2023-07-24T07:51:09.526Z,22.79
2023-07-24T07:52:09.455Z,22.83
2023-07-24T07:53:30.342Z,22.78
2023-07-24T07:54:09.277Z,22.83
2023-07-24T07:55:09.226Z,22.87
2023-07-24T07:56:09.149Z,22.87
2023-07-24T07:57:09.066Z,22.87
2023-07-24T07:58:08.992Z,22.89
2023-07-24T07:59:29.895Z,22.93
2023-07-24T08:00:08.849Z,22.92
2023-07-24T08:01:08.902Z,22.84
2023-07-24T08:02:08.689Z,22.87
2023-07-24T08:03:08.692Z,22.90
2023-07-24T08:04:08.556Z,22.93
2023-07-24T08:05:29.446Z,22.90
2023-07-24T08:06:08.411Z,22.79
2023-07-24T08:07:08.328Z,22.83
2023-07-24T08:08:08.259Z,22.87
2023-07-24T08:09:08.174Z,22.92
2023-07-24T08:10:08.101Z,22.97
2023-07-24T08:11:29.000Z,22.92
2023-07-24T08:12:08.941Z,22.93
2023-07-24T08:13:07.875Z,22.97
2023-07-24T08:14:07.816Z,23.04
2023-07-24T08:15:07.728Z,23.04
2023-07-24T08:16:07.681Z,23.08
2023-07-24T08:17:28.721Z,23.11
2023-07-24T08:18:07.636Z,23.11
2023-07-24T08:19:07.437Z,23.24
2023-07-24T08:20:07.415Z,23.17
2023-07-24T08:21:07.274Z,23.26
2023-07-24T08:22:07.195Z,23.20
2023-07-24T08:23:28.101Z,23.27
2023-07-24T08:24:07.048Z,23.26
2023-07-24T08:25:07.019Z,23.40
2023-07-24T08:26:06.913Z,23.33
2023-07-24T08:27:06.839Z,23.40
2023-07-24T08:28:07.051Z,23.45
2023-07-24T08:29:27.663Z,23.43
2023-07-24T08:30:06.647Z,23.42
2023-07-24T08:31:07.518Z,23.45
2023-07-24T08:32:06.584Z,23.42
2023-07-24T08:33:06.417Z,23.40
2023-07-24T08:34:06.299Z,23.35
2023-07-24T08:35:27.228Z,23.46
2023-07-24T08:36:06.172Z,23.42
2023-07-24T08:37:06.092Z,23.37
2023-07-24T08:38:06.028Z,23.34
2023-07-24T08:39:05.949Z,23.45
2023-07-24T08:40:05.977Z,23.45
2023-07-24T08:41:26.770Z,23.45
2023-07-24T08:42:05.720Z,23.37
2023-07-24T08:43:05.643Z,23.40
2023-07-24T08:44:05.571Z,23.38
2023-07-24T08:45:05.477Z,23.40
2023-07-24T08:46:05.430Z,23.40
2023-07-24T08:47:26.408Z,23.45
2023-07-24T08:48:05.336Z,23.33
2023-07-24T08:49:05.190Z,23.42
2023-07-24T08:50:05.129Z,23.33
2023-07-24T08:51:05.054Z,23.40
2023-07-24T08:52:04.985Z,23.33
2023-07-24T08:53:25.901Z,23.31
2023-07-24T08:54:04.835Z,23.31
2023-07-24T08:55:04.755Z,23.29
2023-07-24T08:56:04.674Z,23.42
2023-07-24T08:57:04.629Z,23.46
2023-07-24T08:58:04.535Z,23.43
2023-07-24T08:59:25.457Z,23.35
2023-07-24T09:00:04.376Z,23.43
2023-07-24T09:01:04.331Z,23.46
2023-07-24T09:02:04.243Z,23.43
2023-07-24T09:03:04.240Z,23.46
2023-07-24T09:04:04.186Z,23.55
2023-07-24T09:05:25.010Z,23.49
2023-07-24T09:06:03.953Z,23.48
2023-07-24T09:07:03.889Z,23.40
2023-07-24T09:08:03.877Z,23.43
2023-07-24T09:09:03.715Z,23.40
2023-07-24T09:10:03.694Z,23.42
2023-07-24T09:11:24.569Z,23.42
2023-07-24T09:12:03.493Z,23.45
2023-07-24T09:13:03.418Z,23.52
2023-07-24T09:14:13.715Z,23.55
2023-07-24T09:15:03.287Z,23.45
2023-07-24T09:16:03.224Z,23.48
2023-07-24T09:17:24.159Z,23.52
2023-07-24T09:18:04.468Z,23.63
2023-07-24T09:19:11.326Z,23.65
2023-07-24T09:20:02.957Z,23.79
2023-07-24T09:21:02.843Z,23.74
2023-07-24T09:22:02.745Z,23.68
2023-07-24T09:23:23.669Z,23.78
2023-07-24T09:24:02.598Z,23.74
2023-07-24T09:25:02.534Z,23.86
2023-07-24T09:26:02.463Z,23.78
2023-07-24T09:27:02.399Z,23.92
2023-07-24T09:28:02.365Z,23.83
2023-07-24T09:29:23.220Z,23.86
2023-07-24T09:30:02.194Z,23.90
2023-07-24T09:31:02.150Z,23.85
2023-07-24T09:32:02.022Z,24.01
2023-07-24T09:33:01.968Z,23.97
2023-07-24T09:34:01.884Z,24.16
2023-07-24T09:35:22.792Z,24.17
2023-07-24T09:36:01.764Z,24.37
2023-07-24T09:37:01.647Z,24.56
2023-07-24T09:38:01.592Z,24.67
2023-07-24T09:39:01.509Z,24.94
2023-07-24T09:40:01.432Z,25.00
2023-07-24T09:41:22.352Z,25.19
2023-07-24T09:42:01.294Z,25.31
2023-07-24T09:43:30.053Z,25.37
2023-07-24T09:44:01.151Z,25.60
2023-07-24T09:45:01.066Z,25.67
2023-07-24T09:46:01.038Z,25.70
2023-07-24T09:47:32.183Z,25.77
2023-07-24T09:48:05.238Z,25.79
2023-07-24T09:50:00.727Z,26.02
2023-07-24T09:51:00.625Z,26.18
2023-07-24T09:52:00.583Z,26.30
2023-07-24T09:53:21.465Z,26.40
2023-07-24T09:54:00.402Z,26.32
2023-07-24T09:55:00.369Z,26.30
2023-07-24T09:56:00.278Z,26.34
2023-07-24T09:57:10.795Z,26.47
2023-07-24T09:58:00.194Z,26.50
2023-07-24T09:59:21.033Z,26.62
2023-07-24T09:59:59.995Z,26.60
2023-07-24T10:00:59.923Z,26.72
2023-07-24T10:01:59.862Z,26.69
2023-07-24T10:02:59.772Z,26.80
2023-07-24T10:03:59.693Z,26.84
2023-07-24T10:05:20.593Z,26.65
2023-07-24T10:05:59.589Z,26.62
2023-07-24T10:06:59.448Z,26.61
2023-07-24T10:07:59.404Z,26.53
2023-07-24T10:08:59.325Z,26.40
2023-07-24T10:09:59.257Z,26.11
2023-07-24T10:11:20.169Z,26.15
2023-07-24T10:11:59.124Z,26.09
2023-07-24T10:12:59.047Z,26.04
2023-07-24T10:13:58.987Z,25.86
2023-07-24T10:14:58.887Z,25.87
2023-07-24T10:15:58.872Z,25.78
2023-07-24T10:17:20.726Z,25.87
2023-07-24T10:17:58.736Z,25.89
2023-07-24T10:18:58.606Z,25.93
2023-07-24T10:19:58.516Z,25.93
2023-07-24T10:20:58.442Z,25.94
2023-07-24T10:21:58.392Z,25.90
2023-07-24T10:23:19.306Z,25.93
2023-07-24T10:23:58.246Z,25.93
2023-07-24T10:24:58.228Z,25.92
2023-07-24T10:25:58.103Z,25.97
2023-07-24T10:26:58.033Z,25.92
2023-07-24T10:27:57.971Z,25.82
2023-07-24T10:29:18.886Z,25.79
2023-07-24T10:29:57.830Z,25.83
2023-07-24T10:30:57.862Z,25.78
2023-07-24T10:31:57.759Z,25.72
2023-07-24T10:32:57.659Z,25.70
2023-07-24T10:33:57.564Z,25.74
2023-07-24T10:35:18.437Z,25.68
2023-07-24T10:35:57.378Z,25.67
2023-07-24T10:36:57.297Z,25.65
2023-07-24T10:37:57.230Z,25.64
2023-07-24T10:38:57.158Z,25.52
2023-07-24T10:39:57.105Z,25.47
2023-07-24T10:41:18.000Z,25.62
2023-07-24T10:41:56.927Z,25.55
2023-07-24T10:42:56.875Z,25.50
2023-07-24T10:43:56.801Z,25.57
2023-07-24T10:44:56.727Z,25.49
2023-07-24T10:45:56.677Z,25.53
2023-07-24T10:47:17.569Z,25.41
2023-07-24T10:47:56.556Z,25.42
2023-07-24T10:48:56.438Z,25.40
2023-07-24T10:49:56.364Z,25.41
2023-07-24T10:50:56.281Z,25.42
2023-07-24T10:51:56.235Z,25.40
2023-07-24T10:53:17.141Z,25.37
2023-07-24T10:53:56.091Z,25.47
2023-07-24T10:54:56.009Z,25.47
2023-07-24T10:55:55.918Z,25.42
2023-07-24T10:56:55.875Z,25.38
2023-07-24T10:57:55.791Z,25.30
2023-07-24T10:59:16.713Z,25.35
2023-07-24T10:59:55.669Z,25.27
2023-07-24T11:00:55.613Z,25.41
2023-07-24T11:01:55.515Z,25.32
2023-07-24T11:02:55.439Z,25.34
2023-07-24T11:03:55.387Z,25.45
2023-07-24T11:05:16.281Z,25.34
2023-07-24T11:05:55.212Z,25.35
2023-07-24T11:06:55.150Z,25.42
2023-07-24T11:07:55.069Z,25.41
2023-07-24T11:08:54.991Z,25.35
2023-07-24T11:09:54.913Z,25.34
2023-07-24T11:11:15.822Z,25.35
2023-07-24T11:11:54.774Z,25.30
2023-07-24T11:12:54.706Z,25.35
2023-07-24T11:13:54.627Z,25.30
2023-07-24T11:14:54.548Z,25.16
2023-07-24T11:15:54.540Z,25.28
2023-07-24T11:17:15.389Z,25.30
2023-07-24T11:17:54.363Z,25.38
2023-07-24T11:18:55.411Z,25.34
2023-07-24T11:19:54.183Z,25.32
2023-07-24T11:20:54.155Z,25.28
2023-07-24T11:21:54.113Z,25.32
2023-07-24T11:23:14.959Z,25.31
2023-07-24T11:23:53.904Z,25.32
2023-07-24T11:24:53.867Z,25.28
2023-07-24T11:25:53.751Z,25.27
2023-07-24T11:26:53.683Z,25.28
2023-07-24T11:27:53.623Z,25.25
2023-07-24T11:29:14.622Z,25.25
2023-07-24T11:29:53.463Z,25.22
2023-07-24T11:30:53.434Z,25.13
2023-07-24T11:31:53.398Z,25.22
2023-07-24T11:32:53.286Z,25.28
2023-07-24T11:33:53.193Z,25.28
2023-07-24T11:35:14.091Z,25.20
2023-07-24T11:35:53.053Z,25.22
2023-07-24T11:36:52.962Z,25.17
2023-07-24T11:37:52.887Z,25.12
2023-07-24T11:38:52.802Z,25.08
2023-07-24T11:39:52.760Z,25.12
2023-07-24T11:41:13.638Z,25.12
2023-07-24T11:41:52.585Z,25.08
2023-07-24T11:42:52.534Z,25.12
2023-07-24T11:43:52.474Z,25.08
2023-07-24T11:44:52.380Z,25.00
2023-07-24T11:45:52.348Z,25.04
2023-07-24T11:47:13.231Z,25.05
2023-07-24T11:47:52.185Z,24.98
2023-07-24T11:48:52.094Z,25.09
2023-07-24T11:49:52.026Z,24.94
2023-07-24T11:50:51.937Z,25.00
2023-07-24T11:51:51.866Z,25.04
2023-07-24T11:53:12.785Z,25.01
2023-07-24T11:53:51.739Z,25.08
2023-07-24T11:54:51.673Z,24.95
2023-07-24T11:55:51.587Z,25.01
2023-07-24T11:56:51.522Z,25.04
2023-07-24T11:57:51.468Z,25.05
2023-07-24T11:59:12.365Z,25.01
2023-07-24T11:59:51.312Z,25.00
2023-07-24T12:00:51.219Z,24.86
2023-07-24T12:01:51.163Z,24.86
2023-07-24T12:02:51.165Z,24.95
2023-07-24T12:03:51.077Z,24.82
2023-07-24T12:05:11.910Z,24.82
2023-07-24T12:05:51.130Z,24.85
2023-07-24T12:06:50.794Z,24.80
2023-07-24T12:07:50.727Z,24.83
2023-07-24T12:08:50.654Z,24.67
2023-07-24T12:09:50.573Z,24.69
2023-07-24T12:11:11.490Z,24.80
2023-07-24T12:11:50.420Z,24.63
2023-07-24T12:12:50.345Z,24.53
2023-07-24T12:13:51.338Z,24.53
2023-07-24T12:14:50.207Z,24.44
2023-07-24T12:15:50.183Z,24.37
2023-07-24T12:17:11.040Z,24.34
2023-07-24T12:17:49.999Z,24.38
2023-07-24T12:18:49.909Z,24.22
2023-07-24T12:19:49.851Z,24.11
2023-07-24T12:20:49.775Z,23.90
2023-07-24T12:21:49.696Z,23.93
2023-07-24T12:23:10.645Z,23.61
2023-07-24T12:23:49.554Z,23.61
2023-07-24T12:24:49.533Z,23.50
2023-07-24T12:25:49.403Z,23.55
2023-07-24T12:26:49.326Z,23.46
2023-07-24T12:27:49.250Z,23.35
2023-07-24T12:29:10.204Z,23.14
2023-07-24T12:29:49.119Z,23.24
2023-07-24T12:30:49.110Z,23.12
2023-07-24T12:31:48.967Z,23.14
2023-07-24T12:32:49.025Z,23.14
2023-07-24T12:33:48.824Z,22.99
2023-07-24T12:35:09.744Z,22.90
2023-07-24T12:35:48.684Z,22.77
2023-07-24T12:36:48.626Z,22.78
2023-07-24T12:37:48.537Z,22.72
2023-07-24T12:38:48.461Z,22.57
2023-07-24T12:39:48.391Z,22.49
2023-07-24T12:41:09.284Z,22.37
2023-07-24T12:41:48.226Z,22.50
2023-07-24T12:42:48.184Z,22.53
2023-07-24T12:43:48.098Z,22.47
2023-07-24T12:44:48.026Z,22.60
2023-07-24T12:45:47.933Z,22.60
2023-07-24T12:47:08.846Z,22.63
2023-07-24T12:47:47.850Z,22.69
2023-07-24T12:48:47.741Z,22.59
2023-07-24T12:49:47.656Z,22.46
2023-07-24T12:50:47.583Z,22.38
2023-07-24T12:51:47.515Z,22.34